createdAt,value
2022-09-05T00:01:28.689Z,65.45
2022-09-05T00:04:39.824Z,65.14
2022-09-05T00:07:59.999Z,64.98
2022-09-05T00:11:43.062Z,65.57
2022-09-05T00:15:16.522Z,66.42
2022-09-05T00:20:04.356Z,66.30
2022-09-05T00:24:19.237Z,66.19
2022-09-05T00:24:35.812Z,66.19
2022-09-05T00:27:19.750Z,66.96
2022-09-05T00:30:47.321Z,66.82
2022-09-05T00:33:27.332Z,66.73
2022-09-05T00:36:17.743Z,66.61
2022-09-05T00:39:00.721Z,66.87
2022-09-05T00:41:32.890Z,66.53
2022-09-05T00:44:07.051Z,66.03
2022-09-05T00:46:44.694Z,67.61
2022-09-05T00:49:59.969Z,67.09
2022-09-05T00:52:42.359Z,67.73
2022-09-05T00:55:25.749Z,68.55
2022-09-05T00:58:03.403Z,68.44
2022-09-05T01:00:48.510Z,69.63
2022-09-05T01:03:42.309Z,68.35
2022-09-05T01:06:37.399Z,68.96
2022-09-05T01:09:14.227Z,69.18
2022-09-05T01:12:10.376Z,69.37
2022-09-05T01:14:56.863Z,69.45
2022-09-05T01:17:50.090Z,69.12
2022-09-05T01:21:00.226Z,69.41
2022-09-05T01:24:39.679Z,69.20
2022-09-05T01:28:35.708Z,69.11
2022-09-05T01:30:39.963Z,69.80
2022-09-05T01:33:18.089Z,69.62
2022-09-05T01:36:04.350Z,69.50
2022-09-05T01:38:48.334Z,69.85
2022-09-05T01:41:53.793Z,69.65
2022-09-05T01:44:43.564Z,69.26
2022-09-05T01:47:44.288Z,69.50
2022-09-05T01:50:20.688Z,69.96
2022-09-05T01:53:10.774Z,69.84
2022-09-05T01:56:06.012Z,69.70
2022-09-05T01:58:55.802Z,69.82
2022-09-05T02:01:33.201Z,70.43
2022-09-05T02:04:19.931Z,70.40
2022-09-05T02:07:19.408Z,71.02
2022-09-05T02:10:24.840Z,70.91
2022-09-05T02:13:11.495Z,70.83
2022-09-05T02:15:59.355Z,71.41
2022-09-05T02:18:54.895Z,71.17
2022-09-05T02:21:55.481Z,70.82
2022-09-05T02:24:41.317Z,70.79
2022-09-05T02:28:04.360Z,70.89
2022-09-05T02:30:36.966Z,70.53
2022-09-05T02:33:29.222Z,70.48
2022-09-05T02:36:14.988Z,71.25
2022-09-05T02:45:00.381Z,70.49
2022-09-05T02:45:07.590Z,71.54
2022-09-05T02:45:34.967Z,71.42
2022-09-05T02:48:46.410Z,71.58
2022-09-05T02:56:34.694Z,71.33
2022-09-05T02:57:39.222Z,70.92
2022-09-05T02:58:06.201Z,71.54
2022-09-05T03:00:48.457Z,71.08
2022-09-05T03:03:28.825Z,70.99
2022-09-05T03:06:26.045Z,71.98
2022-09-05T03:09:35.909Z,72.14
2022-09-05T03:12:29.105Z,71.76
2022-09-05T03:15:22.899Z,71.79
2022-09-05T03:18:30.429Z,71.79
2022-09-05T03:21:21.015Z,71.71
2022-09-05T03:24:04.742Z,71.30
2022-09-05T03:27:05.887Z,71.71
2022-09-05T03:29:40.341Z,71.57
2022-09-05T03:32:20.800Z,71.94
2022-09-05T03:35:10.876Z,71.90
2022-09-05T03:38:20.563Z,71.59
2022-09-05T03:41:14.199Z,71.73
2022-09-05T03:44:08.782Z,71.56
2022-09-05T03:47:24.585Z,72.02
2022-09-05T03:57:08.458Z,71.86
2022-09-05T03:57:13.435Z,71.57
2022-09-05T03:57:20.511Z,71.85
2022-09-05T04:00:06.612Z,71.53
2022-09-05T04:08:11.093Z,71.52
2022-09-05T04:08:18.782Z,71.52
2022-09-05T04:08:57.094Z,71.67
2022-09-05T04:11:52.698Z,72.23
2022-09-05T04:14:33.313Z,71.98
2022-09-05T04:17:31.473Z,71.80
2022-09-05T04:20:39.806Z,71.92
2022-09-05T04:23:19.078Z,71.75
2022-09-05T04:26:13.960Z,71.49
2022-09-05T04:29:04.143Z,71.98
2022-09-05T04:32:03.937Z,71.96
2022-09-05T04:34:51.178Z,72.24
2022-09-05T04:37:55.195Z,71.75
2022-09-05T04:40:32.959Z,71.86
2022-09-05T04:43:41.965Z,71.75
2022-09-05T04:46:19.190Z,71.58
2022-09-05T04:49:03.065Z,71.51
2022-09-05T04:52:00.312Z,71.58
2022-09-05T04:54:35.341Z,71.60
2022-09-05T04:57:35.820Z,71.45
2022-09-05T05:06:00.769Z,71.53
2022-09-05T05:06:05.346Z,71.50
2022-09-05T05:06:45.057Z,71.61
2022-09-05T05:09:30.736Z,71.64
2022-09-05T05:17:55.393Z,72.10
2022-09-05T05:17:56.599Z,71.80
2022-09-05T05:18:48.837Z,72.27
2022-09-05T05:21:29.461Z,71.95
2022-09-05T05:24:13.185Z,71.59
2022-09-05T05:26:56.911Z,70.99
2022-09-05T05:29:58.525Z,70.47
2022-09-05T05:32:52.513Z,69.50
2022-09-05T05:35:31.713Z,68.84
2022-09-05T05:38:45.074Z,67.89
2022-09-05T05:41:32.493Z,66.41
2022-09-05T05:44:14.468Z,65.01
2022-09-05T05:46:55.589Z,64.36
2022-09-05T05:49:50.425Z,63.72
2022-09-05T05:53:00.852Z,63.20
2022-09-05T05:55:52.670Z,63.33
2022-09-05T05:58:52.220Z,63.54
2022-09-05T06:02:04.365Z,63.59
2022-09-05T06:05:13.601Z,63.98
2022-09-05T06:10:14.401Z,64.50
2022-09-05T06:14:58.422Z,64.37
2022-09-05T06:15:02.504Z,63.96
2022-09-05T06:17:28.163Z,63.35
2022-09-05T06:22:05.370Z,62.72
2022-09-05T06:23:32.257Z,62.19
2022-09-05T06:26:23.248Z,61.37
2022-09-05T06:29:22.585Z,60.38
2022-09-05T06:32:31.205Z,58.58
2022-09-05T06:35:17.778Z,57.00
2022-09-05T06:38:21.229Z,55.44
2022-09-05T06:41:15.965Z,53.89
2022-09-05T06:44:12.736Z,52.06
2022-09-05T06:46:55.288Z,51.47
2022-09-05T06:50:26.941Z,51.00
2022-09-05T06:53:08.199Z,49.43
2022-09-05T06:56:07.457Z,48.17
2022-09-05T06:59:09.727Z,46.99
2022-09-05T07:02:00.513Z,46.26
2022-09-05T07:05:23.505Z,46.07
2022-09-05T07:07:52.958Z,44.40
2022-09-05T07:10:38.994Z,44.27
2022-09-05T07:13:25.231Z,43.41
2022-09-05T07:16:10.810Z,43.88
2022-09-05T07:19:27.665Z,45.26
2022-09-05T07:22:47.344Z,45.35
2022-09-05T07:25:20.282Z,44.27
2022-09-05T07:28:29.968Z,43.96
2022-09-05T07:31:03.056Z,42.82
2022-09-05T07:33:39.330Z,42.53
2022-09-05T07:36:17.192Z,41.97
2022-09-05T07:39:02.267Z,41.51
2022-09-05T07:41:45.245Z,41.23
2022-09-05T07:44:29.669Z,41.51
2022-09-05T07:47:18.481Z,41.28
2022-09-05T07:50:40.151Z,41.14
2022-09-05T07:56:55.221Z,40.61
2022-09-05T07:57:15.920Z,40.53
2022-09-05T07:58:41.864Z,41.23
2022-09-05T08:01:14.845Z,41.27
2022-09-05T08:03:54.593Z,41.56
2022-09-05T08:06:50.738Z,42.02
2022-09-05T08:10:06.261Z,40.99
2022-09-05T08:12:57.693Z,40.31
2022-09-05T08:16:10.763Z,40.84
2022-09-05T08:18:36.648Z,40.61
2022-09-05T08:21:13.514Z,40.49
2022-09-05T08:23:48.156Z,40.43
2022-09-05T08:26:46.907Z,39.04
2022-09-05T08:29:38.275Z,38.72
2022-09-05T08:32:35.241Z,38.12
2022-09-05T08:35:15.907Z,39.68
2022-09-05T08:37:50.239Z,39.26
2022-09-05T08:40:30.997Z,39.48
2022-09-05T08:46:23.474Z,40.59
2022-09-05T08:46:42.601Z,41.36
2022-09-05T08:49:38.589Z,42.20
2022-09-05T08:52:33.897Z,42.80
2022-09-05T08:55:14.573Z,43.73
2022-09-05T08:58:04.473Z,44.01
2022-09-05T09:00:55.085Z,43.47
2022-09-05T09:03:53.661Z,43.82
2022-09-05T09:07:47.722Z,43.50
2022-09-05T09:10:11.713Z,44.25
2022-09-05T09:13:19.887Z,44.10
2022-09-05T09:16:14.398Z,43.28
2022-09-05T09:18:48.732Z,42.92
2022-09-05T09:21:25.365Z,42.98
2022-09-05T09:24:27.759Z,42.94
2022-09-05T09:27:09.139Z,44.16
2022-09-05T09:29:42.833Z,45.26
2022-09-05T09:32:17.350Z,45.88
2022-09-05T09:35:23.433Z,46.29
2022-09-05T09:38:15.895Z,45.81
2022-09-05T09:41:12.214Z,47.47
2022-09-05T09:44:06.803Z,47.57
2022-09-05T09:46:43.671Z,47.32
2022-09-05T09:49:32.920Z,48.56
2022-09-05T09:52:41.804Z,48.43
2022-09-05T09:55:41.072Z,47.63
2022-09-05T09:58:31.449Z,47.06
2022-09-05T10:01:35.555Z,46.81
2022-09-05T10:08:40.732Z,46.16
2022-09-05T10:10:47.955Z,46.31
2022-09-05T10:11:18.795Z,46.99
2022-09-05T10:13:38.414Z,47.53
2022-09-05T10:16:25.053Z,47.64
2022-09-05T10:20:06.070Z,47.42
2022-09-05T10:22:50.214Z,48.21
2022-09-05T10:25:51.309Z,48.34
2022-09-05T10:28:22.846Z,48.53
2022-09-05T10:31:30.217Z,49.16
2022-09-05T10:35:16.835Z,49.05
2022-09-05T10:37:05.392Z,49.21
2022-09-05T10:39:41.672Z,49.20
2022-09-05T10:42:17.903Z,49.01
2022-09-05T10:44:58.301Z,48.86
2022-09-05T10:47:47.896Z,49.68
2022-09-05T10:50:32.292Z,49.90
2022-09-05T10:53:10.482Z,49.16
2022-09-05T10:55:59.825Z,49.36
2022-09-05T11:00:05.670Z,49.81
2022-09-05T11:02:22.383Z,49.53
2022-09-05T11:04:46.597Z,50.02
2022-09-05T11:07:45.783Z,49.80
2022-09-05T11:10:45.052Z,49.88
2022-09-05T11:13:47.554Z,49.50
2022-09-05T11:16:22.145Z,49.66
2022-09-05T11:19:03.873Z,49.92
2022-09-05T11:21:50.496Z,49.59
2022-09-05T11:24:42.040Z,48.66
2022-09-05T11:27:24.708Z,48.33
2022-09-05T11:30:28.709Z,47.64
2022-09-05T11:37:43.063Z,46.86
2022-09-05T11:40:07.347Z,46.43
2022-09-05T11:40:30.054Z,46.08
2022-09-05T11:43:23.035Z,45.81
2022-09-05T11:46:29.479Z,47.12
2022-09-05T11:49:43.337Z,46.61
2022-09-05T11:52:40.738Z,45.83
2022-09-05T11:55:47.109Z,45.80
2022-09-05T11:58:45.460Z,46.28
2022-09-05T12:01:45.338Z,45.81
2022-09-05T12:05:48.447Z,46.89
2022-09-05T12:08:01.820Z,46.82
2022-09-05T12:11:06.970Z,46.33
2022-09-05T12:14:25.474Z,45.30
2022-09-05T12:20:17.162Z,45.40
2022-09-05T12:23:06.473Z,45.40
2022-09-05T12:27:38.516Z,45.30
2022-09-05T12:29:28.143Z,45.36
2022-09-05T12:34:39.890Z,44.76
2022-09-05T12:36:06.371Z,45.44
2022-09-05T12:40:54.622Z,45.67
2022-09-05T12:41:41.218Z,44.79
2022-09-05T12:41:44.764Z,45.83
2022-09-05T12:44:45.397Z,45.25
2022-09-05T12:47:21.199Z,45.71
2022-09-05T12:50:14.449Z,46.35
2022-09-05T12:52:51.816Z,46.17
2022-09-05T12:56:12.164Z,46.69
2022-09-05T13:02:55.152Z,47.08
2022-09-05T13:03:13.876Z,46.83
2022-09-05T13:05:01.089Z,46.43
2022-09-05T13:07:41.001Z,46.25
2022-09-05T13:12:35.760Z,46.10
2022-09-05T13:15:00.997Z,46.17
2022-09-05T13:16:46.184Z,44.79
2022-09-05T13:19:33.234Z,44.84
2022-09-05T13:22:06.220Z,44.70
2022-09-05T13:24:41.593Z,43.96
2022-09-05T13:27:33.357Z,43.56
2022-09-05T13:31:28.591Z,43.33
2022-09-05T13:38:07.593Z,43.63
2022-09-05T13:38:42.045Z,43.35
2022-09-05T13:39:12.153Z,43.31
2022-09-05T13:41:51.165Z,43.36
2022-09-05T13:44:27.975Z,43.07
2022-09-05T13:47:28.798Z,42.75
2022-09-05T13:50:07.545Z,42.57
2022-09-05T13:52:44.452Z,42.26
2022-09-05T13:55:44.111Z,42.44
2022-09-05T13:58:39.885Z,42.74
2022-09-05T14:01:26.769Z,42.83
2022-09-05T14:07:53.442Z,42.25
2022-09-05T14:10:57.555Z,42.05
2022-09-05T14:14:09.299Z,42.70
2022-09-05T14:16:53.514Z,42.09
2022-09-05T14:19:45.813Z,42.38
2022-09-05T14:22:45.741Z,42.46
2022-09-05T14:25:26.700Z,42.37
2022-09-05T14:28:01.080Z,42.14
2022-09-05T14:32:04.384Z,41.73
2022-09-05T14:37:39.711Z,41.18
2022-09-05T14:37:43.765Z,41.03
2022-09-05T14:40:02.170Z,41.25
2022-09-05T14:43:13.984Z,41.91
2022-09-05T14:46:07.528Z,42.44
2022-09-05T14:48:53.726Z,41.71
2022-09-05T14:51:39.204Z,42.07
2022-09-05T15:02:45.488Z,42.49
2022-09-05T15:02:54.384Z,42.15
2022-09-05T15:06:32.887Z,43.09
2022-09-05T15:12:17.409Z,43.64
2022-09-05T15:12:20.656Z,43.54
2022-09-05T15:15:15.577Z,42.71
2022-09-05T15:17:50.267Z,43.02
2022-09-05T15:20:32.623Z,43.26
2022-09-05T15:23:16.061Z,43.34
2022-09-05T15:25:57.648Z,43.40
2022-09-05T15:28:43.273Z,43.37
2022-09-05T15:31:24.789Z,43.77
2022-09-05T15:33:56.768Z,43.39
2022-09-05T15:36:35.518Z,44.05
2022-09-05T15:39:24.904Z,45.01
2022-09-05T15:42:11.288Z,45.54
2022-09-05T15:45:06.336Z,45.29
2022-09-05T15:47:35.308Z,45.32
2022-09-05T15:50:19.014Z,45.72
2022-09-05T15:52:55.872Z,45.01
2022-09-05T15:55:27.767Z,44.93
2022-09-05T15:58:07.519Z,44.71
2022-09-05T16:00:51.657Z,44.69
2022-09-05T16:09:16.622Z,45.04
2022-09-05T16:10:30.117Z,44.96
2022-09-05T16:10:57.393Z,44.95
2022-09-05T16:12:44.794Z,45.43
2022-09-05T16:17:35.026Z,45.55
2022-09-05T16:23:15.453Z,45.82
2022-09-05T16:23:21.115Z,46.55
2022-09-05T16:24:24.946Z,46.70
2022-09-05T16:27:18.562Z,47.21
2022-09-05T16:29:51.713Z,48.07
2022-09-05T16:32:29.104Z,48.21
2022-09-05T16:35:08.615Z,47.37
2022-09-05T16:37:52.408Z,47.92
2022-09-05T16:40:27.095Z,47.44
2022-09-05T16:43:09.030Z,47.22
2022-09-05T16:45:52.545Z,47.50
2022-09-05T16:48:45.539Z,47.25
2022-09-05T16:51:24.673Z,48.01
2022-09-05T16:54:10.957Z,47.88
2022-09-05T16:56:47.586Z,48.88
2022-09-05T16:59:28.415Z,48.69
2022-09-05T17:02:08.030Z,48.50
2022-09-05T17:05:05.983Z,48.81
2022-09-05T17:07:46.537Z,49.45
2022-09-05T17:10:25.728Z,48.99
2022-09-05T17:12:57.625Z,49.91
2022-09-05T17:15:35.438Z,49.90
2022-09-05T17:18:24.263Z,49.74
2022-09-05T17:21:01.484Z,49.65
2022-09-05T17:29:16.124Z,50.13
2022-09-05T17:29:32.523Z,50.75
2022-09-05T17:32:38.673Z,50.97
2022-09-05T17:35:33.761Z,50.98
2022-09-05T17:38:25.855Z,50.76
2022-09-05T17:41:14.132Z,51.31
2022-09-05T17:43:57.923Z,51.40
2022-09-05T17:46:34.425Z,51.87
2022-09-05T17:49:18.204Z,51.81
2022-09-05T17:51:55.808Z,52.45
2022-09-05T17:54:31.750Z,52.43
2022-09-05T17:57:28.050Z,52.50
2022-09-05T18:00:43.642Z,52.63
2022-09-05T18:03:45.895Z,52.87
2022-09-05T18:06:20.491Z,52.28
2022-09-05T18:08:52.949Z,52.84
2022-09-05T18:11:27.926Z,52.87
2022-09-05T18:14:10.617Z,52.80
2022-09-05T18:17:36.502Z,53.55
2022-09-05T18:19:57.921Z,53.29
2022-09-05T18:22:36.899Z,53.30
2022-09-05T18:25:28.261Z,53.81
2022-09-05T18:28:28.961Z,53.81
2022-09-05T18:31:40.838Z,53.81
2022-09-05T18:34:19.632Z,54.24
2022-09-05T18:36:56.990Z,54.07
2022-09-05T18:39:37.594Z,54.63
2022-09-05T18:42:26.043Z,54.67
2022-09-05T18:45:15.345Z,55.01
2022-09-05T18:53:34.781Z,54.97
2022-09-05T18:56:21.106Z,55.05
2022-09-05T18:59:24.169Z,55.51
2022-09-05T19:02:01.061Z,55.34
2022-09-05T19:04:42.431Z,55.41
2022-09-05T19:07:48.286Z,55.41
2022-09-05T19:10:36.013Z,55.53
2022-09-05T19:13:15.060Z,55.60
2022-09-05T19:16:21.176Z,55.54
2022-09-05T19:19:17.332Z,56.17
2022-09-05T19:22:45.164Z,56.13
2022-09-05T19:24:51.349Z,55.80
2022-09-05T19:33:03.396Z,55.43
2022-09-05T19:36:58.158Z,55.54
2022-09-05T19:37:05.923Z,56.07
2022-09-05T19:37:14.799Z,55.73
2022-09-05T19:42:54.191Z,56.06
2022-09-05T19:47:37.945Z,56.38
2022-09-05T19:47:43.861Z,55.82
2022-09-05T19:48:26.761Z,56.27
2022-09-05T19:51:16.275Z,56.77
2022-09-05T19:54:04.215Z,56.47
2022-09-05T19:56:38.997Z,56.51
2022-09-05T19:59:24.878Z,56.37
2022-09-05T20:01:57.081Z,56.45
2022-09-05T20:04:53.082Z,56.26
2022-09-05T20:07:27.959Z,56.06
2022-09-05T20:10:02.954Z,56.38
2022-09-05T20:12:43.547Z,56.48
2022-09-05T20:15:17.968Z,56.75
2022-09-05T20:17:54.026Z,57.10
2022-09-05T20:20:31.255Z,57.12
2022-09-05T20:23:07.382Z,57.42
2022-09-05T20:25:41.958Z,57.79
2022-09-05T20:28:20.851Z,57.96
2022-09-05T20:30:55.608Z,57.36
2022-09-05T20:33:38.896Z,58.55
2022-09-05T20:42:15.686Z,58.82
2022-09-05T20:43:18.924Z,58.67
2022-09-05T20:43:23.017Z,58.52
2022-09-05T20:45:01.277Z,58.97
2022-09-05T20:51:33.272Z,59.13
2022-09-05T20:54:18.416Z,59.40
2022-09-05T20:54:20.153Z,59.75
2022-09-05T20:56:33.257Z,60.04
2022-09-05T20:59:12.505Z,59.53
2022-09-05T21:01:55.073Z,59.59
2022-09-05T21:04:32.862Z,59.94
2022-09-05T21:07:13.230Z,59.98
2022-09-05T21:09:55.205Z,59.58
2022-09-05T21:12:34.608Z,59.86
2022-09-05T21:15:24.300Z,59.82
2022-09-05T21:18:16.246Z,59.88
2022-09-05T21:20:53.962Z,59.79
2022-09-05T21:23:36.896Z,60.31
2022-09-05T21:26:25.246Z,60.64
2022-09-05T21:29:04.108Z,60.40
2022-09-05T21:31:45.680Z,60.18
2022-09-05T21:34:38.371Z,60.92
2022-09-05T21:37:18.081Z,61.05
2022-09-05T21:39:59.540Z,61.11
2022-09-05T21:44:10.514Z,60.96
2022-09-05T21:47:44.678Z,61.24
2022-09-05T21:48:16.148Z,61.42
2022-09-05T21:50:51.387Z,61.51
2022-09-05T21:57:16.863Z,61.41
2022-09-05T21:59:20.182Z,61.53
2022-09-05T21:59:38.841Z,61.80
2022-09-05T22:02:18.108Z,62.21
2022-09-05T22:04:56.869Z,61.95
2022-09-05T22:07:35.584Z,62.06
2022-09-05T22:10:08.530Z,62.20
2022-09-05T22:12:40.451Z,62.15
2022-09-05T22:15:27.794Z,62.04
2022-09-05T22:18:16.723Z,62.59
2022-09-05T22:21:32.775Z,62.70
2022-09-05T22:23:48.616Z,62.76
2022-09-05T22:26:21.216Z,62.98
2022-09-05T22:28:52.837Z,63.23
2022-09-05T22:31:24.506Z,63.70
2022-09-05T22:33:58.946Z,63.49
2022-09-05T22:36:32.249Z,63.59
2022-09-05T22:39:03.896Z,63.91
2022-09-05T22:41:38.737Z,63.94
2022-09-05T22:44:10.305Z,63.84
2022-09-05T22:46:41.966Z,64.05
2022-09-05T22:49:13.570Z,64.15
2022-09-05T22:51:45.168Z,64.11
2022-09-05T22:54:16.738Z,63.93
2022-09-05T22:56:51.055Z,64.10
2022-09-05T22:59:22.677Z,63.88
2022-09-05T23:01:54.477Z,63.99
2022-09-05T23:04:26.510Z,63.97
2022-09-05T23:07:02.665Z,63.90
2022-09-05T23:09:35.266Z,63.93
2022-09-05T23:12:07.077Z,63.96
2022-09-05T23:14:38.662Z,63.87
2022-09-05T23:17:13.222Z,63.61
2022-09-05T23:19:44.801Z,63.65
2022-09-05T23:22:16.688Z,63.62
2022-09-05T23:24:48.292Z,63.84
2022-09-05T23:27:19.949Z,64.07
2022-09-05T23:29:51.557Z,63.99
2022-09-05T23:32:23.141Z,64.24
2022-09-05T23:34:54.852Z,64.37
2022-09-05T23:37:26.510Z,64.17
2022-09-05T23:39:58.237Z,64.27
2022-09-05T23:42:29.997Z,64.54
2022-09-05T23:45:01.612Z,64.46
2022-09-05T23:47:35.616Z,64.45
2022-09-05T23:50:07.500Z,64.38
2022-09-05T23:52:40.048Z,64.56
2022-09-05T23:55:14.319Z,64.68
2022-09-05T23:57:46.695Z,64.39
